Garvin, Oklahoma
Current Conditions -  °F | °C
As of 9:55 AM on Sunday 21 Dec 2014 (Local Time) from K4O4 Reporting Station
Overcast Overcast  
Wind Chill: 40°   Ceiling: 4000
Heat Index: 43°   Visibility: 7mi
Dew Point: 37°   Wind: 5mph
Humidity: 81%   Direction: 100°E
Pressure: 30.15"   Gusts: NA
Location:  33.95°N, 94.94°W
Report Text: K4O4 211555Z AUTO 10004KT 7SM OVC040 06/03 A3015 RMK AO2
Loading
Personal Weather Stations






























Interactive Weather Map New forecast layout! Learn more

10-Day Weather Forecast

Advertisements
Track Severe Weather on mobile